Latest Weather Observations for Charlton

IDV60801

Issued at 9:35 pm EDT Sunday 23 November 2014 (issued every 30 minutes, with the page automatically refreshed every 10 minutes)

About weather observations | Map of weather stations | Latest weather observations for VIC | Other Formats
Station Details ID: 080128 Name: CHARLTON Lat: -36.28 Lon: 143.33 Height: 131.7 m
Data from the previous 72 hours. | See also: Recent months at Charlton
Date/Time
EDT
Temp
°C
App
Temp
°C
Dew
Point
Rel
Hum
%
Delta-T
°C
Wind Press
QNH
hPa
Press
MSL
hPa
Rain
since 9 am
mm
Dir
 
Spd
km/h
Gust
km/h
Spd
kts
Gust
kts
23/09:30pm 23.7 22.0 8.2 37 8.3 WSW 7 11 4 6 1012.4 1012.0 0.2
23/09:00pm 24.8 22.5 7.4 33 9.2 NNW 9 13 5 7 1012.4 1012.0 0.2
23/08:30pm 25.1 22.2 6.3 30 9.8 NW 11 19 6 10 1012.9 1012.5 0.2
23/08:00pm 25.7 22.7 5.8 28 10.3 NW 11 17 6 9 1012.4 1012.0 0.2
23/07:30pm 26.3 24.2 5.8 27 10.6 W 6 9 3 5 1011.4 1011.0 0.2
23/07:00pm 27.1 24.8 4.8 24 11.4 SW 6 11 3 6 1010.3 1010.0 0.2
23/06:30pm 28.0 25.0 4.3 22 12.1 WSW 9 24 5 13 1010.3 1010.0 0.2
23/06:00pm 28.2 24.0 3.8 21 12.4 W 15 22 8 12 1010.7 1010.3 0.2
23/05:30pm 28.4 24.9 5.3 23 12.0 W 13 24 7 13 1011.0 1010.6 0.2
23/05:00pm 28.6 24.2 4.8 22 12.3 W 17 33 9 18 1010.9 1010.5 0.2
23/04:30pm 28.9 24.4 6.3 24 12.0 W 19 30 10 16 1010.8 1010.4 0.2
23/04:00pm 28.9 24.4 6.3 24 12.0 W 19 32 10 17 1011.1 1010.7 0.2
23/03:30pm 28.6 24.5 6.1 24 11.9 W 17 30 9 16 1011.1 1010.7 0.2
23/03:00pm 29.3 25.7 8.4 27 11.5 W 17 26 9 14 1011.2 1010.8 0.2
23/02:30pm 29.2 25.1 8.8 28 11.3 W 20 35 11 19 1011.0 1010.6 0.2
23/02:00pm 28.7 24.5 9.9 31 10.6 W 22 39 12 21 1011.4 1011.0 0.2
23/01:30pm 28.7 26.4 11.7 35 9.9 NW 15 26 8 14 1011.0 1010.6 0.2
23/01:00pm 27.9 25.6 11.9 37 9.3 NW 15 24 8 13 1011.3 1010.9 0.2
23/12:30pm 26.7 24.4 10.4 36 9.2 NNW 13 20 7 11 1011.3 1010.9 0.2
23/12:00pm 27.2 25.9 12.4 40 8.6 W 11 19 6 10 1011.3 1010.9 0.2
23/11:30am 26.6 25.7 12.6 42 8.2 NW 9 15 5 8 1011.5 1011.1 0.2
23/11:00am 25.2 24.1 12.1 44 7.5 WSW 9 17 5 9 1011.7 1011.3 0.2
23/10:30am 24.3 24.0 13.2 50 6.5 ESE 7 9 4 5 1011.8 1011.4 0.2
23/10:00am 23.2 23.2 13.7 55 5.6 S 6 9 3 5 1011.7 1011.3 0.0
23/09:30am 22.3 22.7 15.4 65 4.1 S 7 13 4 7 1011.8 1011.4 0.0
23/09:00am 20.7 20.7 14.1 66 3.9 S 7 11 4 6 1012.0 1011.6 6.2
23/08:30am 19.7 19.1 13.6 68 3.5 SE 9 13 5 7 1012.0 1011.6 6.2
23/08:00am 18.6 17.9 14.3 76 2.5 SSE 11 13 6 7 1011.9 1011.5 6.2
23/07:30am 17.8 17.4 14.1 79 2.1 SSE 9 13 5 7 1011.6 1011.2 6.2
23/07:00am 17.3 17.6 14.9 86 1.4 SE 7 9 4 5 1011.5 1011.1 6.2
23/06:30am 16.3 16.9 15.8 97 0.3 SE 7 11 4 6 1010.9 1010.5 6.2
23/06:00am 16.4 17.1 16.1 98 0.2 SE 7 9 4 5 1010.5 1010.1 6.2
23/05:30am 16.5 16.8 16.0 97 0.3 SSE 9 11 5 6 1010.1 1009.8 6.2
23/05:00am 16.7 17.6 16.7 100 0.0 SSE 7 9 4 5 1010.0 1009.7 6.2
23/04:30am 16.9 18.5 16.9 100 0.0 SSE 4 7 2 4 1009.8 1009.5 6.2
23/04:00am 16.9 18.9 16.9 100 0.0 W 2 7 1 4 1009.7 1009.4 6.2
23/03:30am 17.3 19.8 17.3 100 0.0 CALM 0 0 0 0 1009.9 1009.6 6.2
23/03:00am 17.3 18.7 17.3 100 0.0 WNW 6 9 3 5 1009.7 1009.4 6.2
23/02:30am 17.1 18.2 17.1 100 0.0 NW 7 9 4 5 1009.7 1009.4 6.2
23/02:00am 17.2 18.3 17.2 100 0.0 NNW 7 9 4 5 1009.5 1009.2 6.2
23/01:30am 17.1 18.4 17.1 100 0.0 NNW 6 7 3 4 1009.6 1009.3 6.2
23/01:00am 17.4 19.2 17.4 100 0.0 WNW 4 7 2 4 1009.5 1009.2 6.2
23/12:30am 17.8 20.1 17.8 100 0.0 N 2 6 1 3 1009.5 1009.2 6.2
23/12:00am 18.0 20.7 17.8 99 0.1 WNW 0 0 0 0 1009.3 1009.0 6.2
 
Date/Time
EDT
Temp
°C
App
Temp
°C
Dew
Point
Rel
Hum
%
Delta-T
°C
Wind Press
QNH
hPa
Press
MSL
hPa
Rain
since 9 am
mm
Dir
 
Spd
km/h
Gust
km/h
Spd
kts
Gust
kts
22/11:30pm 18.5 21.4 18.3 99 0.1 CALM 0 0 0 0 1009.2 1008.9 6.2
22/11:00pm 18.4 21.1 17.8 96 0.4 CALM 0 0 0 0 1009.2 1008.9 6.2
22/10:30pm 18.4 20.9 18.2 99 0.1 WSW 2 7 1 4 1009.1 1008.8 6.2
22/10:00pm 18.4 21.3 18.1 98 0.2 CALM 0 0 0 0 1008.9 1008.6 6.2
22/09:30pm 18.8 21.2 18.0 95 0.5 NW 2 7 1 4 1008.4 1008.1 6.2
22/09:00pm 19.0 20.4 17.3 90 1.0 WNW 6 11 3 6 1008.3 1008.0 5.8
22/08:30pm 19.8 20.6 17.2 85 1.6 N 9 13 5 7 1009.0 1008.7 1.6
22/08:00pm 19.7 20.8 17.1 85 1.6 NNW 7 11 4 6 1008.6 1008.3 1.6
22/07:30pm 19.7 19.6 16.9 84 1.7 NW 13 20 7 11 1008.5 1008.2 1.4
22/07:00pm 19.1 18.5 16.7 86 1.5 N 15 26 8 14 1008.0 1007.7 1.4
22/06:30pm 20.7 18.6 15.3 71 3.2 NNW 20 32 11 17 1009.4 1009.1 0.0
22/06:00pm 21.6 19.7 14.3 63 4.3 NNW 17 26 9 14 1007.9 1007.5 0.0
22/05:30pm 22.6 18.8 13.7 57 5.2 NNW 26 39 14 21 1008.4 1008.1 0.0
22/05:01pm 25.7 20.3 9.5 36 8.9 NNW 28 46 15 25 1008.5 1008.2 0.0
22/05:00pm 25.8 20.4 9.6 36 9.0 NNW 28 43 15 23 1008.4 1008.1 0.0
22/04:34pm 26.8 21.2 8.7 32 9.9 NNW 28 46 15 25 1007.8 1007.4 0.0
22/04:30pm 27.1 21.1 8.5 31 10.2 NNW 30 46 16 25 1007.9 1007.5 0.0
22/04:24pm 27.9 21.9 8.7 30 10.6 NNW 30 48 16 26 1007.7 1007.3 0.0
22/04:00pm 29.2 23.7 7.7 26 11.7 NNW 26 43 14 23 1007.4 1007.0 0.0
22/03:30pm 29.6 23.7 5.6 22 12.7 N 26 44 14 24 1007.9 1007.5 0.0
22/03:00pm 28.9 23.1 6.3 24 12.0 N 26 37 14 20 1008.8 1008.5 0.0
22/02:30pm 28.1 23.7 7.4 27 11.2 N 20 30 11 16 1008.9 1008.6 0.0
22/02:00pm 27.6 23.0 8.0 29 10.7 NNW 22 33 12 18 1009.7 1009.4 0.0
22/01:30pm 25.8 21.6 8.3 33 9.5 N 20 32 11 17 1009.7 1009.4 0.0
22/01:00pm 26.9 20.7 6.3 27 10.8 NNW 28 41 15 22 1010.0 1009.7 0.0
22/12:30pm 26.3 21.6 5.3 26 10.8 N 19 32 10 17 1010.5 1010.1 0.0
22/12:00pm 25.1 22.3 5.3 28 10.1 N 9 13 5 7 1012.0 1011.6 0.0
22/11:30am 24.8 22.6 5.1 28 10.0 ENE 6 11 3 6 1011.6 1011.2 0.0
22/11:00am 23.7 20.5 5.1 30 9.4 NNE 11 15 6 8 1011.7 1011.3 0.0
22/10:30am 23.4 19.8 4.9 30 9.3 NNE 13 20 7 11 1011.4 1011.0 0.0
22/10:00am 22.9 19.3 4.9 31 9.0 NNE 13 19 7 10 1011.1 1010.7 0.0
22/09:30am 23.0 19.3 4.5 30 9.2 NE 13 20 7 11 1011.0 1010.6 0.0
22/09:00am 22.5 18.4 4.1 30 9.0 ENE 15 20 8 11 1010.8 1010.4 0.0
22/08:30am 20.4 17.8 6.0 39 7.2 ENE 9 15 5 8 1010.6 1010.2 0.0
22/08:00am 19.1 16.5 6.2 43 6.5 ENE 9 13 5 7 1010.3 1010.0 0.0
22/07:30am 17.2 16.3 7.8 54 4.8 ENE 2 7 1 4 1010.1 1009.8 0.0
22/07:00am 12.9 11.8 7.1 68 2.8 SE 2 6 1 3 1010.1 1009.8 0.0
22/06:30am 12.2 10.7 6.7 69 2.6 ENE 4 7 2 4 1009.8 1009.5 0.0
22/06:00am 11.3 9.7 6.4 72 2.3 NE 4 7 2 4 1009.8 1009.5 0.0
22/05:30am 11.5 10.6 6.0 69 2.6 CALM 0 0 0 0 1009.6 1009.3 0.0
22/05:00am 11.4 10.5 5.9 69 2.6 CALM 0 0 0 0 1009.8 1009.5 0.0
22/04:30am 11.7 10.9 6.4 70 2.5 CALM 0 0 0 0 1009.9 1009.6 0.0
22/04:00am 12.2 11.2 5.6 64 3.1 CALM 0 0 0 0 1009.7 1009.4 0.0
22/03:30am 12.5 11.8 7.0 69 2.7 CALM 0 0 0 0 1009.8 1009.5 0.0
22/03:00am 12.8 12.0 6.4 65 3.1 CALM 0 0 0 0 1010.0 1009.7 0.0
22/02:30am 12.6 11.6 5.5 62 3.3 CALM 0 0 0 0 1010.0 1009.7 0.0
22/02:00am 13.5 12.7 6.6 63 3.3 CALM 0 0 0 0 1010.6 1010.2 0.0
22/01:30am 13.4 12.4 5.6 59 3.7 CALM 0 0 0 0 1010.9 1010.5 0.0
22/01:00am 14.5 13.5 5.8 56 4.2 CALM 0 0 0 0 1011.4 1011.0 0.0
22/12:30am 15.1 14.1 5.6 53 4.6 CALM 0 0 0 0 1011.5 1011.1 0.0
22/12:00am 16.0 14.6 5.3 49 5.1 S 2 7 1 4 1011.6 1011.2 0.0
 
Date/Time
EDT
Temp
°C
App
Temp
°C
Dew
Point
Rel
Hum
%
Delta-T
°C
Wind Press
QNH
hPa
Press
MSL
hPa
Rain
since 9 am
mm
Dir
 
Spd
km/h
Gust
km/h
Spd
kts
Gust
kts
21/11:30pm 16.3 14.4 5.0 47 5.4 SW 4 13 2 7 1011.9 1011.5 0.0
21/11:00pm 17.4 15.2 5.4 45 5.8 NNW 6 7 3 4 1011.9 1011.5 0.0
21/10:30pm 18.1 17.0 5.0 42 6.3 CALM 0 0 0 0 1012.0 1011.6 0.0
21/10:00pm 19.9 18.3 4.4 36 7.5 NW 2 6 1 3 1011.9 1011.5 0.0
21/09:30pm 21.2 18.7 3.9 32 8.4 WNW 6 9 3 5 1011.6 1011.2 0.0
21/09:00pm 22.0 18.8 3.2 29 9.0 WNW 9 11 5 6 1011.6 1011.2 0.0
21/08:30pm 22.6 19.9 3.7 29 9.2 W 7 11 4 6 1011.3 1010.9 0.0
21/08:00pm 23.7 20.1 3.1 26 10.0 W 11 15 6 8 1011.1 1010.7 0.0
21/07:30pm 24.7 20.8 3.4 25 10.5 W 13 20 7 11 1010.7 1010.3 0.0
21/07:00pm 25.9 22.0 3.2 23 11.2 W 13 20 7 11 1010.2 1009.9 0.0
21/06:30pm 25.9 22.2 2.6 22 11.4 W 11 20 6 11 1009.9 1009.6 0.0
21/06:00pm 27.0 23.4 2.8 21 12.0 WSW 11 17 6 9 1009.7 1009.4 0.0
21/05:30pm 26.6 22.8 1.8 20 12.0 WSW 11 24 6 13 1009.7 1009.4 0.0
21/05:00pm 26.5 21.9 1.7 20 12.0 W 15 24 8 13 1009.8 1009.5 0.0
21/04:30pm 26.9 22.5 2.7 21 11.9 WSW 15 24 8 13 1009.9 1009.6 0.0
21/04:00pm 26.1 22.1 2.7 22 11.5 W 13 26 7 14 1010.0 1009.7 0.0
21/03:30pm 26.5 23.2 4.3 24 11.2 WSW 11 19 6 10 1010.5 1010.1 0.0
21/03:00pm 26.0 22.1 3.3 23 11.3 W 13 24 7 13 1010.8 1010.4 0.0
21/02:30pm 25.6 21.9 4.7 26 10.6 WSW 13 22 7 12 1010.9 1010.5 0.0
21/02:00pm 25.3 21.8 5.5 28 10.2 SW 13 22 7 12 1011.0 1010.6 0.0
21/01:30pm 24.4 21.1 6.6 32 9.3 SSW 13 20 7 11 1011.3 1010.9 0.0
21/01:00pm 23.3 20.1 7.0 35 8.5 W 13 20 7 11 1011.5 1011.1 0.0
21/12:30pm 22.8 19.7 7.4 37 8.1 WSW 13 20 7 11 1011.8 1011.4 0.0
21/12:00pm 21.6 18.5 7.1 39 7.5 WSW 13 20 7 11 1011.9 1011.5 0.0
21/11:30am 20.8 18.1 8.8 46 6.4 W 13 22 7 12 1012.0 1011.6 0.0
21/11:00am 20.5 18.1 10.0 51 5.7 WSW 13 20 7 11 1012.0 1011.6 0.0
21/10:30am 19.4 17.3 9.9 54 5.1 W 11 20 6 11 1011.9 1011.5 0.0
21/10:00am 18.6 17.0 11.4 63 4.0 WSW 11 20 6 11 1011.7 1011.3 0.0
21/09:30am 17.2 14.6 10.8 66 3.5 WSW 15 24 8 13 1011.9 1011.5 0.0
21/09:00am 16.6 14.3 11.7 73 2.7 WSW 15 22 8 12 1011.7 1011.3 0.6
21/08:30am 16.5 14.2 11.9 74 2.5 WSW 15 24 8 13 1011.4 1011.0 0.6
21/08:00am 16.4 13.6 13.1 81 1.9 WSW 20 33 11 18 1011.5 1011.1 0.6
21/07:30am 15.6 13.3 12.9 84 1.5 W 17 28 9 15 1010.6 1010.2 0.6
21/07:00am 14.4 13.4 13.3 93 0.6 W 11 17 6 9 1010.1 1009.8 0.6
21/06:30am 13.7 12.2 13.1 96 0.3 W 13 20 7 11 1009.7 1009.4 0.6
21/06:00am 13.6 11.9 12.5 93 0.6 W 13 20 7 11 1009.1 1008.8 0.6
21/05:30am 14.0 11.5 12.4 90 0.9 W 17 24 9 13 1008.9 1008.6 0.6
21/05:00am 14.4 11.4 12.1 86 1.3 W 19 32 10 17 1008.4 1008.1 0.6
21/04:30am 14.4 11.8 12.1 86 1.3 WSW 17 28 9 15 1008.1 1007.8 0.6
21/04:00am 14.6 11.8 12.5 87 1.2 W 19 28 10 15 1007.9 1007.5 0.6
21/03:30am 14.7 13.0 12.6 87 1.2 W 13 22 7 12 1007.6 1007.2 0.6
21/03:00am 15.2 12.9 13.1 87 1.2 W 17 24 9 13 1007.4 1007.0 0.6
21/02:30am 15.7 13.6 13.5 87 1.2 WSW 17 30 9 16 1007.6 1007.2 0.6
21/02:00am 16.3 14.1 14.5 89 1.0 W 19 32 10 17 1007.6 1007.2 0.6
21/01:30am 17.1 15.6 15.3 89 1.1 W 17 28 9 15 1007.4 1007.0 0.6
21/01:00am 17.6 17.0 15.6 88 1.2 W 13 24 7 13 1007.3 1006.9 0.6
21/12:30am 18.3 17.5 16.1 87 1.3 W 15 24 8 13 1007.4 1007.0 0.6
21/12:00am 19.1 18.7 16.1 83 1.8 W 13 22 7 12 1007.2 1006.8 0.6
 
Date/Time
EDT
Temp
°C
App
Temp
°C
Dew
Point
Rel
Hum
%
Delta-T
°C
Wind Press
QNH
hPa
Press
MSL
hPa
Rain
since 9 am
mm
Dir
 
Spd
km/h
Gust
km/h
Spd
kts
Gust
kts
20/11:30pm 19.0 19.4 16.2 84 1.7 WNW 9 15 5 8 1007.2 1006.8 0.6
20/11:00pm 19.0 19.4 16.4 85 1.6 NW 9 13 5 7 1007.5 1007.1 0.6
20/10:30pm 18.9 19.9 16.3 85 1.6 WNW 6 9 3 5 1007.5 1007.1 0.6
20/10:00pm 19.2 21.2 16.1 82 1.9 CALM 0 6 0 3 1007.3 1006.9 0.6

Other Formats:

Comma delimited format used in spreadsheet applications
http://www.bom.gov.au/fwo/IDV60801/IDV60801.94839.axf

JavaScript Object Notation format (JSON) in row-major order
http://www.bom.gov.au/fwo/IDV60801/IDV60801.94839.json